createdAt,value
2016-03-31T00:00:55.366Z,68.41
2016-03-31T00:01:55.384Z,68.26
2016-03-31T00:02:55.403Z,68.32
2016-03-31T00:03:55.421Z,68.41
2016-03-31T00:04:55.440Z,68.54
2016-03-31T00:05:55.458Z,68.44
2016-03-31T00:06:55.475Z,68.03
2016-03-31T00:07:55.478Z,68.32
2016-03-31T00:08:55.497Z,68.12
2016-03-31T00:09:55.531Z,68.22
2016-03-31T00:10:55.533Z,68.32
2016-03-31T00:11:55.552Z,68.88
2016-03-31T00:12:55.570Z,68.32
2016-03-31T00:13:55.620Z,68.22
2016-03-31T00:14:55.608Z,68.12
2016-03-31T00:15:55.625Z,68.32
2016-03-31T00:16:55.643Z,68.6
2016-03-31T00:17:55.660Z,68.41
2016-03-31T00:18:55.662Z,69.17
2016-03-31T00:19:55.691Z,68.32
2016-03-31T00:20:55.694Z,68.88
2016-03-31T00:21:55.711Z,68.6
2016-03-31T00:22:55.729Z,68.98
2016-03-31T00:23:55.749Z,68.98
2016-03-31T00:24:55.766Z,68.6
2016-03-31T00:25:55.785Z,68.88
2016-03-31T00:26:55.788Z,68.6
2016-03-31T00:27:55.806Z,68.79
2016-03-31T00:28:55.871Z,68.98
2016-03-31T00:29:55.843Z,68.98
2016-03-31T00:30:55.865Z,68.98
2016-03-31T00:31:55.901Z,68.7
2016-03-31T00:32:55.890Z,68.7
2016-03-31T00:33:55.908Z,69.17
2016-03-31T00:34:55.926Z,68.7
2016-03-31T00:35:55.976Z,68.88
2016-03-31T00:36:55.963Z,69.27
2016-03-31T00:37:55.965Z,69.08
2016-03-31T00:38:55.983Z,69.74
2016-03-31T00:39:56.003Z,69.74
2016-03-31T00:40:56.020Z,69.93
2016-03-31T00:41:56.039Z,70.13
2016-03-31T00:42:56.042Z,70.13
2016-03-31T00:43:56.075Z,69.93
2016-03-31T00:44:56.094Z,70.13
2016-03-31T00:45:56.112Z,70.22
2016-03-31T00:46:56.114Z,70.32
2016-03-31T00:47:56.133Z,70.42
2016-03-31T00:48:56.152Z,70.28
2016-03-31T00:49:56.169Z,70.38
2016-03-31T00:50:56.205Z,70.47
2016-03-31T00:51:56.207Z,70.09
2016-03-31T00:52:56.210Z,70.19
2016-03-31T00:53:56.227Z,70.47
2016-03-31T00:54:56.246Z,69.9
2016-03-31T00:55:56.263Z,70.09
2016-03-31T00:56:56.282Z,70.09
2016-03-31T00:57:56.332Z,70.28
2016-03-31T00:58:56.319Z,69.9
2016-03-31T00:59:56.321Z,70.38
2016-03-31T01:00:56.340Z,69.9
2016-03-31T01:01:56.374Z,70.19
2016-03-31T01:02:56.392Z,70.09
2016-03-31T01:03:56.395Z,70.09
2016-03-31T01:04:56.413Z,69.9
2016-03-31T01:05:56.431Z,69.9
2016-03-31T01:06:56.434Z,70.28
2016-03-31T01:07:56.453Z,70.09
2016-03-31T01:08:56.502Z,70
2016-03-31T01:09:56.490Z,69.9
2016-03-31T01:10:56.508Z,70.19
2016-03-31T01:11:56.511Z,70.47
2016-03-31T01:12:56.544Z,70.09
2016-03-31T01:13:56.547Z,70.19
2016-03-31T01:14:56.565Z,69.9
2016-03-31T01:15:56.583Z,70.09
2016-03-31T01:16:56.602Z,69.9
2016-03-31T01:17:56.605Z,70.19
2016-03-31T01:18:56.638Z,70
2016-03-31T01:19:56.672Z,69.9
2016-03-31T01:20:56.690Z,70.28
2016-03-31T01:21:56.521Z,70.47
2016-03-31T01:22:56.711Z,70.09
2016-03-31T01:23:56.714Z,70.47
2016-03-31T01:24:56.732Z,70.28
2016-03-31T01:25:56.735Z,70.38
2016-03-31T01:26:56.800Z,70.82
2016-03-31T01:27:56.771Z,70.44
2016-03-31T01:28:56.806Z,70.63
2016-03-31T01:29:56.792Z,70.57
2016-03-31T01:30:56.826Z,70.57
2016-03-31T01:31:56.829Z,70.44
2016-03-31T01:32:56.848Z,70.34
2016-03-31T01:33:57.006Z,70.34
2016-03-31T01:34:56.884Z,70.06
2016-03-31T01:35:56.918Z,69.87
2016-03-31T01:36:56.920Z,70.34
2016-03-31T01:37:56.939Z,70.44
2016-03-31T01:38:56.943Z,70.34
2016-03-31T01:39:56.961Z,70.25
2016-03-31T01:40:56.963Z,70.44
2016-03-31T01:41:57.029Z,70.63
2016-03-31T01:42:57.000Z,70.34
2016-03-31T01:43:57.050Z,70.63
2016-03-31T01:44:57.036Z,70.34
2016-03-31T01:45:57.055Z,70.53
2016-03-31T01:46:57.058Z,70.53
2016-03-31T01:47:57.075Z,70.53
2016-03-31T01:48:57.094Z,70.72
2016-03-31T01:49:57.128Z,70.25
2016-03-31T01:50:57.130Z,69.96
2016-03-31T01:51:57.149Z,69.96
2016-03-31T01:52:57.167Z,69.87
2016-03-31T01:53:57.185Z,69.48
2016-03-31T01:54:57.204Z,69.77
2016-03-31T01:55:57.222Z,69.58
2016-03-31T01:56:57.240Z,70.53
2016-03-31T01:57:57.243Z,70.25
2016-03-31T01:58:57.262Z,70.06
2016-03-31T01:59:57.265Z,69.96
2016-03-31T02:00:57.282Z,69.87
2016-03-31T02:01:57.301Z,70.06
2016-03-31T02:02:57.304Z,70.06
2016-03-31T02:03:57.337Z,69.77
2016-03-31T02:04:57.340Z,69.58
2016-03-31T02:05:57.359Z,69.68
2016-03-31T02:06:57.376Z,69.58
2016-03-31T02:07:57.404Z,69.96
2016-03-31T02:08:57.407Z,69.29
2016-03-31T02:09:57.424Z,68.82
2016-03-31T02:10:57.444Z,69.87
2016-03-31T02:11:57.462Z,69.87
2016-03-31T02:12:57.465Z,69.39
2016-03-31T02:13:57.482Z,69.58
2016-03-31T02:14:57.501Z,69.26
2016-03-31T02:15:57.518Z,69.26
2016-03-31T02:16:57.521Z,69.2
2016-03-31T02:17:57.543Z,69.64
2016-03-31T02:18:57.562Z,69.39
2016-03-31T02:19:57.580Z,69.54
2016-03-31T02:20:57.598Z,69.74
2016-03-31T02:21:57.601Z,69.54
2016-03-31T02:22:57.619Z,69.54
2016-03-31T02:23:57.637Z,68.88
2016-03-31T02:24:57.655Z,68.59
2016-03-31T02:25:57.673Z,69.07
2016-03-31T02:26:57.676Z,68.69
2016-03-31T02:27:57.710Z,68.78
2016-03-31T02:28:57.713Z,68.59
2016-03-31T02:29:57.731Z,68.69
2016-03-31T02:30:57.733Z,69.17
2016-03-31T02:31:57.752Z,68.88
2016-03-31T02:32:57.802Z,68.69
2016-03-31T02:33:57.774Z,68.21
2016-03-31T02:34:57.791Z,68.12
2016-03-31T02:35:57.825Z,67.74
2016-03-31T02:36:57.828Z,67.74
2016-03-31T02:37:57.846Z,68.4
2016-03-31T02:38:57.865Z,67.74
2016-03-31T02:39:57.868Z,67.64
2016-03-31T02:40:57.885Z,67.64
2016-03-31T02:41:57.171Z,67.83
2016-03-31T02:42:57.923Z,67.93
2016-03-31T02:43:57.941Z,68.02
2016-03-31T02:44:57.943Z,67.83
2016-03-31T02:45:57.978Z,67.45
2016-03-31T02:46:57.996Z,67.35
2016-03-31T02:47:58.014Z,67.64
2016-03-31T02:48:58.001Z,66.88
2016-03-31T02:49:58.035Z,67.16
2016-03-31T02:50:58.053Z,66.11
2016-03-31T02:51:58.057Z,65.92
2016-03-31T02:52:58.090Z,64.4
2016-03-31T02:53:58.093Z,63.54
2016-03-31T02:54:58.095Z,64.59
2016-03-31T02:55:58.114Z,65.26
2016-03-31T02:56:58.148Z,65.64
2016-03-31T02:57:58.134Z,64.02
2016-03-31T02:58:58.169Z,63.92
2016-03-31T02:59:58.172Z,64.59
2016-03-31T03:00:58.205Z,63.92
2016-03-31T03:01:58.209Z,63.35
2016-03-31T03:02:58.227Z,63.92
2016-03-31T03:03:58.245Z,63.26
2016-03-31T03:04:58.263Z,63.54
2016-03-31T03:05:58.281Z,64.21
2016-03-31T03:06:58.284Z,63.26
2016-03-31T03:07:58.277Z,62.3
2016-03-31T03:08:58.284Z,63.07
2016-03-31T03:09:58.318Z,62.97
2016-03-31T03:10:58.322Z,62.02
2016-03-31T03:11:58.339Z,62.68
2016-03-31T03:12:58.358Z,61.83
2016-03-31T03:13:58.377Z,62.02
2016-03-31T03:14:58.379Z,62.02
2016-03-31T03:15:58.413Z,62.3
2016-03-31T03:16:58.416Z,61.54
2016-03-31T03:17:58.419Z,60.3
2016-03-31T03:18:58.436Z,60.49
2016-03-31T03:19:58.454Z,60.59
2016-03-31T03:20:58.489Z,60.3
2016-03-31T03:21:58.491Z,60.69
2016-03-31T03:22:58.510Z,60.78
2016-03-31T03:23:58.544Z,59.64
2016-03-31T03:24:58.546Z,59.92
2016-03-31T03:25:58.549Z,59.38
2016-03-31T03:26:58.567Z,59.67
2016-03-31T03:27:58.571Z,59.57
2016-03-31T03:28:58.620Z,59
2016-03-31T03:29:58.606Z,58.04
2016-03-31T03:30:58.641Z,58.43
2016-03-31T03:31:58.643Z,58.04
2016-03-31T03:32:58.646Z,57.67
2016-03-31T03:33:58.665Z,58.04
2016-03-31T03:34:58.683Z,57.76
2016-03-31T03:35:58.700Z,57.09
2016-03-31T03:36:58.719Z,57.38
2016-03-31T03:37:58.737Z,57.67
2016-03-31T03:38:58.771Z,56.04
2016-03-31T03:39:58.758Z,55.85
2016-03-31T03:40:58.792Z,56.04
2016-03-31T03:41:58.780Z,56.43
2016-03-31T03:42:58.813Z,56.62
2016-03-31T03:43:58.817Z,56.52
2016-03-31T03:44:58.850Z,56.24
2016-03-31T03:45:58.852Z,56.81
2016-03-31T03:46:58.887Z,55.76
2016-03-31T03:47:58.874Z,55.47
2016-03-31T03:48:58.892Z,55.19
2016-03-31T03:49:58.926Z,55.28
2016-03-31T03:50:58.929Z,55.38
2016-03-31T03:51:58.947Z,54.71
2016-03-31T03:52:58.966Z,54.14
2016-03-31T03:53:58.985Z,54.9
2016-03-31T03:54:58.987Z,54.8
2016-03-31T03:55:59.020Z,55.28
2016-03-31T03:56:59.024Z,55
2016-03-31T03:57:59.041Z,54.64
2016-03-31T03:58:59.044Z,54.52
2016-03-31T03:59:59.093Z,54.61
2016-03-31T04:00:59.081Z,54.45
2016-03-31T04:01:59.098Z,53.78
2016-03-31T04:02:59.117Z,54.17
2016-03-31T04:03:59.136Z,53.47
2016-03-31T04:04:59.139Z,53.76
2016-03-31T04:05:59.172Z,54.33
2016-03-31T04:06:59.175Z,53.56
2016-03-31T04:07:59.193Z,53.41
2016-03-31T04:08:59.211Z,53.5
2016-03-31T04:09:59.230Z,53.41
2016-03-31T04:10:59.233Z,53.12
2016-03-31T04:11:59.269Z,53.12
2016-03-31T04:12:59.494Z,53.21
2016-03-31T04:13:59.805Z,53.02
2016-03-31T04:14:59.832Z,53.12
2016-03-31T04:15:59.321Z,52.83
2016-03-31T04:16:59.293Z,52.64
2016-03-31T04:17:59.310Z,52.92
2016-03-31T04:18:59.346Z,52.64
2016-03-31T04:19:59.348Z,51.78
2016-03-31T04:20:59.381Z,52.36
2016-03-31T04:21:59.384Z,52.45
2016-03-31T04:22:59.418Z,52.64
2016-03-31T04:23:59.405Z,52.16
2016-03-31T04:24:59.455Z,51.4
2016-03-31T04:25:59.511Z,51.97
2016-03-31T04:26:59.580Z,51.97
2016-03-31T04:27:59.652Z,51.5
2016-03-31T04:28:59.738Z,51.68
2016-03-31T04:29:59.798Z,51.97
2016-03-31T04:30:59.803Z,51.97
2016-03-31T04:31:59.841Z,51.31
2016-03-31T04:32:59.893Z,51.31
2016-03-31T04:33:59.915Z,51.4
2016-03-31T04:34:59.933Z,50.83
2016-03-31T04:35:59.973Z,51.21
2016-03-31T04:37:00.014Z,51.68
2016-03-31T04:38:00.007Z,51.68
2016-03-31T04:39:00.032Z,52.26
2016-03-31T04:40:00.055Z,51.78
2016-03-31T04:41:00.060Z,51.21
2016-03-31T04:42:00.097Z,51.78
2016-03-31T04:43:00.101Z,50.83
2016-03-31T04:44:00.122Z,51.31
2016-03-31T04:45:00.143Z,50.83
2016-03-31T04:46:00.162Z,50.63
2016-03-31T04:47:00.165Z,51.02
2016-03-31T04:48:00.186Z,51.31
2016-03-31T04:49:00.205Z,51.31
2016-03-31T04:50:00.224Z,50.16
2016-03-31T04:51:00.243Z,50.35
2016-03-31T04:52:00.246Z,50.54
2016-03-31T04:53:00.264Z,50.54
2016-03-31T04:54:00.283Z,49.3
2016-03-31T04:55:00.317Z,49.59
2016-03-31T04:56:00.320Z,50.26
2016-03-31T04:57:00.339Z,49.59
2016-03-31T04:58:00.342Z,50.26
2016-03-31T04:59:00.406Z,49.78
2016-03-31T05:00:00.378Z,49.4
2016-03-31T05:01:00.397Z,49.49
2016-03-31T05:02:00.414Z,50.45
2016-03-31T05:03:00.356Z,50.16
2016-03-31T05:04:00.452Z,50.26
2016-03-31T05:05:00.455Z,49.68
2016-03-31T05:06:00.473Z,50.16
2016-03-31T05:07:00.492Z,50.07
2016-03-31T05:08:00.510Z,50.26
2016-03-31T05:09:00.528Z,50.26
2016-03-31T05:10:00.530Z,50.54
2016-03-31T05:11:00.549Z,49.87
2016-03-31T05:12:00.567Z,49.49
2016-03-31T05:13:00.601Z,49.78
2016-03-31T05:14:00.619Z,50.16
2016-03-31T05:15:00.607Z,49.21
2016-03-31T05:16:00.624Z,48.92
2016-03-31T05:17:00.644Z,49.21
2016-03-31T05:18:00.677Z,48.54
2016-03-31T05:19:00.679Z,48.44
2016-03-31T05:20:00.699Z,48.92
2016-03-31T05:21:00.716Z,48.25
2016-03-31T05:22:00.735Z,48.35
2016-03-31T05:23:00.737Z,48.07
2016-03-31T05:24:00.756Z,47.87
2016-03-31T05:25:00.790Z,47.78
2016-03-31T05:26:00.793Z,47.87
2016-03-31T05:27:00.796Z,47.78
2016-03-31T05:28:00.829Z,47.97
2016-03-31T05:29:00.847Z,47.97
2016-03-31T05:30:00.851Z,48.37
2016-03-31T05:31:00.868Z,48.37
2016-03-31T05:32:00.886Z,49.33
2016-03-31T05:33:00.905Z,49.04
2016-03-31T05:34:00.923Z,49.62
2016-03-31T05:35:00.957Z,49.33
2016-03-31T05:36:00.960Z,49.23
2016-03-31T05:37:00.978Z,49.62
2016-03-31T05:38:01.011Z,48.57
2016-03-31T05:39:01.000Z,49.33
2016-03-31T05:40:01.017Z,49.52
2016-03-31T05:41:01.052Z,49.9
2016-03-31T05:42:01.038Z,49.62
2016-03-31T05:43:01.057Z,48.28
2016-03-31T05:44:01.090Z,49.33
2016-03-31T05:45:01.094Z,51.04
2016-03-31T05:46:01.112Z,49.8
2016-03-31T05:47:01.130Z,49.62
2016-03-31T05:48:01.132Z,50.18
2016-03-31T05:49:01.183Z,50.57
2016-03-31T05:50:01.185Z,50.85
2016-03-31T05:51:01.203Z,50.49
2016-03-31T05:52:01.222Z,49.73
2016-03-31T05:53:01.224Z,50.76
2016-03-31T05:54:01.243Z,50.98
2016-03-31T05:55:01.262Z,50.31
2016-03-31T05:56:01.264Z,50.21
2016-03-31T05:57:01.298Z,50.4
2016-03-31T05:58:01.331Z,50.59
2016-03-31T05:59:01.318Z,51.17
2016-03-31T06:00:01.336Z,51.26
2016-03-31T06:01:01.371Z,50.69
2016-03-31T06:02:01.389Z,50.69
2016-03-31T06:03:01.392Z,50.4
2016-03-31T06:04:01.411Z,50.59
2016-03-31T06:05:01.428Z,50.59
2016-03-31T06:06:01.431Z,51.26
2016-03-31T06:07:01.450Z,51.45
2016-03-31T06:08:01.467Z,51.74
2016-03-31T06:09:01.486Z,52.31
2016-03-31T06:10:01.505Z,51.93
2016-03-31T06:11:01.523Z,51.74
2016-03-31T06:12:01.541Z,51.83
2016-03-31T06:13:01.560Z,51.45
2016-03-31T06:14:01.563Z,52.03
2016-03-31T06:15:01.580Z,52.05
2016-03-31T06:16:01.614Z,52.31
2016-03-31T06:17:01.633Z,51.93
2016-03-31T06:18:01.635Z,52.4
2016-03-31T06:19:01.654Z,51.64
2016-03-31T06:20:01.671Z,51.17
2016-03-31T06:21:01.690Z,51.74
2016-03-31T06:22:01.693Z,52.98
2016-03-31T06:23:01.712Z,52.24
2016-03-31T06:24:01.729Z,51.76
2016-03-31T06:25:01.748Z,51.19
2016-03-31T06:26:01.766Z,51.19
2016-03-31T06:27:01.816Z,51.57
2016-03-31T06:28:01.803Z,51.67
2016-03-31T06:29:01.837Z,52.72
2016-03-31T06:30:01.840Z,52.43
2016-03-31T06:31:01.858Z,52.15
2016-03-31T06:32:01.861Z,51.5
2016-03-31T06:33:01.894Z,51.98
2016-03-31T06:34:01.898Z,50.84
2016-03-31T06:35:01.915Z,51.21
2016-03-31T06:36:01.933Z,50.55
2016-03-31T06:37:01.968Z,50.45
2016-03-31T06:38:01.986Z,49.69
2016-03-31T06:39:02.005Z,50.45
2016-03-31T06:40:02.008Z,50.64
2016-03-31T06:41:02.041Z,50.07
2016-03-31T06:42:02.044Z,50.76
2016-03-31T06:43:02.077Z,50.48
2016-03-31T06:44:02.080Z,50.95
2016-03-31T06:45:02.099Z,50.38
2016-03-31T06:46:02.116Z,49.84
2016-03-31T06:47:02.136Z,49.84
2016-03-31T06:48:02.154Z,48.59
2016-03-31T06:49:02.187Z,48.39
2016-03-31T06:50:02.175Z,48.21
2016-03-31T06:51:02.208Z,48.21
2016-03-31T06:52:02.226Z,48.02
2016-03-31T06:53:02.261Z,47.53
2016-03-31T06:54:02.263Z,47.73
2016-03-31T06:55:02.282Z,47.44
2016-03-31T06:56:02.301Z,47.92
2016-03-31T06:57:02.318Z,48.02
2016-03-31T06:58:02.337Z,48.02
2016-03-31T06:59:02.354Z,48.68
2016-03-31T07:00:02.482Z,48.21
2016-03-31T07:01:02.392Z,48.21
2016-03-31T07:02:02.409Z,48.02
2016-03-31T07:03:02.429Z,47.34
2016-03-31T07:04:02.462Z,47.27
2016-03-31T07:05:02.464Z,47.16
2016-03-31T07:06:02.484Z,47.66
2016-03-31T07:07:02.611Z,46.67
2016-03-31T07:08:02.525Z,47.47
2016-03-31T07:09:02.543Z,47.08
2016-03-31T07:10:02.561Z,46.98
2016-03-31T07:11:02.580Z,47.27
2016-03-31T07:12:02.597Z,47.66
2016-03-31T07:13:02.632Z,46.89
2016-03-31T07:14:02.635Z,45.94
2016-03-31T07:15:02.652Z,46.22
2016-03-31T07:16:02.672Z,46.7
2016-03-31T07:17:02.705Z,47.37
2016-03-31T07:18:02.707Z,47.27
2016-03-31T07:19:02.742Z,46.41
2016-03-31T07:20:02.744Z,45.96
2016-03-31T07:21:02.778Z,45.29
2016-03-31T07:22:02.812Z,44.54
2016-03-31T07:23:02.816Z,44.26
2016-03-31T07:24:02.834Z,44.16
2016-03-31T07:25:02.851Z,44.18
2016-03-31T07:26:02.870Z,43.32
2016-03-31T07:27:02.904Z,43.24
2016-03-31T07:28:02.922Z,42.47
2016-03-31T07:29:02.940Z,41.52
2016-03-31T07:30:02.943Z,42
2016-03-31T07:31:02.961Z,41.16
2016-03-31T07:32:02.995Z,41.54
2016-03-31T07:33:03.014Z,40.89
2016-03-31T07:34:03.032Z,39.37
2016-03-31T07:35:03.066Z,38.41
2016-03-31T07:36:03.069Z,37.37
2016-03-31T07:37:03.103Z,37.08
2016-03-31T07:38:03.121Z,36.13
2016-03-31T07:39:03.139Z,36.13
2016-03-31T07:40:03.173Z,35.26
2016-03-31T07:41:03.191Z,35.18
2016-03-31T07:42:03.225Z,36.05
2016-03-31T07:43:03.228Z,35.1
2016-03-31T07:44:03.278Z,32.71
2016-03-31T07:45:03.296Z,33.48
2016-03-31T07:46:03.299Z,33.77
2016-03-31T07:47:03.941Z,33.12
2016-03-31T07:48:03.352Z,31.96
2016-03-31T07:49:03.385Z,32.26
2016-03-31T07:50:03.404Z,30.34
2016-03-31T07:51:03.438Z,29.58
2016-03-31T07:52:03.455Z,29.29
2016-03-31T07:53:03.474Z,27.86
2016-03-31T07:54:03.507Z,27.7
2016-03-31T07:55:03.526Z,25.76
2016-03-31T07:56:03.591Z,25.39
2016-03-31T07:57:03.593Z,25.49
2016-03-31T07:58:03.612Z,26.65
2016-03-31T07:59:03.631Z,25.49
2016-03-31T08:00:03.665Z,24.82
2016-03-31T08:01:03.683Z,22.81
2016-03-31T08:02:03.717Z,23.3
2016-03-31T08:03:03.734Z,21.85
2016-03-31T08:04:03.769Z,21.86
2016-03-31T08:05:03.819Z,23.03
2016-03-31T08:06:03.822Z,22.45
2016-03-31T08:07:03.856Z,21.88
2016-03-31T08:08:03.889Z,20.44
2016-03-31T08:09:03.908Z,19.58
2016-03-31T08:10:03.942Z,18.61
2016-03-31T08:11:03.961Z,18.71
2016-03-31T08:12:03.994Z,18.91
2016-03-31T08:13:04.028Z,18.13
2016-03-31T08:14:04.046Z,18.62
2016-03-31T08:15:04.080Z,17.57
2016-03-31T08:16:04.098Z,16.51
2016-03-31T08:17:04.133Z,16.41
2016-03-31T08:18:04.166Z,16.12
2016-03-31T08:19:04.200Z,16.21
2016-03-31T08:20:04.218Z,16.89
2016-03-31T08:21:04.252Z,16.69
2016-03-31T08:22:04.286Z,17.46
2016-03-31T08:23:04.320Z,17.57
2016-03-31T08:24:04.354Z,16.41
2016-03-31T08:25:04.372Z,16.41
2016-03-31T08:26:04.406Z,17.66
2016-03-31T08:27:04.456Z,16.11
2016-03-31T08:28:04.473Z,16.78
2016-03-31T08:29:04.509Z,16.5
2016-03-31T08:30:04.557Z,15.54
2016-03-31T08:31:04.560Z,15.83
2016-03-31T08:32:04.609Z,15.35
2016-03-31T08:33:04.628Z,15.75
2016-03-31T08:34:04.662Z,14.49
2016-03-31T08:35:04.696Z,14.01
2016-03-31T08:36:04.745Z,14.02
2016-03-31T08:37:04.764Z,13.82
2016-03-31T08:38:04.970Z,13.15
2016-03-31T08:39:04.816Z,13.06
2016-03-31T08:40:04.851Z,12.38
2016-03-31T08:41:04.884Z,12.87
2016-03-31T08:42:04.919Z,13.35
2016-03-31T08:43:04.953Z,11.79
2016-03-31T08:44:05.002Z,13.05
2016-03-31T08:45:05.020Z,12.57
2016-03-31T08:46:05.070Z,11.99
2016-03-31T08:47:05.088Z,11.22
2016-03-31T08:48:05.106Z,12.19
2016-03-31T08:49:05.141Z,12.28
2016-03-31T08:50:05.174Z,11.3
2016-03-31T08:51:05.223Z,11.3
2016-03-31T08:52:05.241Z,12.09
2016-03-31T08:53:05.276Z,10.93
2016-03-31T08:54:05.326Z,11.12
2016-03-31T08:55:05.374Z,10.55
2016-03-31T08:56:05.377Z,9.77
2016-03-31T08:57:05.412Z,10.06
2016-03-31T08:58:05.446Z,9.19
2016-03-31T08:59:05.479Z,9.78
2016-03-31T09:00:05.513Z,9
2016-03-31T09:01:05.548Z,9.1
2016-03-31T09:02:05.629Z,9
2016-03-31T09:03:05.615Z,9.88
2016-03-31T09:04:05.664Z,9.19
2016-03-31T09:05:05.684Z,8.99
2016-03-31T09:06:05.717Z,10.06
2016-03-31T09:07:05.750Z,10.16
2016-03-31T09:08:05.784Z,10.74
2016-03-31T09:09:05.834Z,10.64
2016-03-31T09:10:05.853Z,10.74
2016-03-31T09:11:05.886Z,11.62
2016-03-31T09:12:05.920Z,12.3
2016-03-31T09:13:05.955Z,12.8
2016-03-31T09:14:06.004Z,11.52
2016-03-31T09:15:06.022Z,11.33
2016-03-31T09:16:06.072Z,10.84
2016-03-31T09:17:06.091Z,10.25
2016-03-31T09:18:06.125Z,10.06
2016-03-31T09:19:06.158Z,11.32
2016-03-31T09:20:06.192Z,10.83
2016-03-31T09:21:06.430Z,10.74
2016-03-31T09:22:06.260Z,9.95
2016-03-31T09:23:06.294Z,10.16
2016-03-31T09:24:06.327Z,9.67
2016-03-31T09:25:06.363Z,9.67
2016-03-31T09:26:06.396Z,9.96
2016-03-31T09:27:06.415Z,9.38
2016-03-31T09:28:06.464Z,10.55
2016-03-31T09:29:06.498Z,9.77
2016-03-31T09:30:06.532Z,9.56
2016-03-31T09:31:06.565Z,10.35
2016-03-31T09:32:06.599Z,11.03
2016-03-31T09:33:06.649Z,10.74
2016-03-31T09:34:06.684Z,9.86
2016-03-31T09:35:06.701Z,9.38
2016-03-31T09:36:06.720Z,9.77
2016-03-31T09:37:06.770Z,9.67
2016-03-31T09:38:06.803Z,9.09
2016-03-31T09:39:06.837Z,10.55
2016-03-31T09:40:06.871Z,8.8
2016-03-31T09:41:06.890Z,9
2016-03-31T09:42:06.923Z,9.3
2016-03-31T09:43:06.958Z,8.81
2016-03-31T09:44:06.992Z,8.91
2016-03-31T09:45:07.026Z,7.25
2016-03-31T09:46:07.075Z,7.25
2016-03-31T09:47:07.093Z,7.64
2016-03-31T09:48:07.205Z,7.54
2016-03-31T09:49:07.158Z,7.64
2016-03-31T09:50:07.207Z,8.52
2016-03-31T09:51:07.226Z,9.11
2016-03-31T09:52:07.260Z,7.35
2016-03-31T09:53:07.310Z,6.67
2016-03-31T09:54:07.360Z,7.84
2016-03-31T09:55:07.363Z,7.25
2016-03-31T09:56:07.240Z,7.45
2016-03-31T09:57:07.430Z,7.05
2016-03-31T09:58:07.464Z,7.64
2016-03-31T09:59:07.513Z,7.64
2016-03-31T10:00:07.532Z,6.37
2016-03-31T10:01:07.565Z,7.15
2016-03-31T10:02:07.615Z,6.96
2016-03-31T10:03:07.680Z,8.91
2016-03-31T10:04:07.683Z,6.76
2016-03-31T10:05:07.718Z,7.25
2016-03-31T10:06:07.751Z,8.14
2016-03-31T10:07:07.784Z,7.06
2016-03-31T10:08:07.818Z,7.75
2016-03-31T10:09:07.853Z,7.65
2016-03-31T10:10:07.762Z,7.06
2016-03-31T10:11:07.952Z,7.26
2016-03-31T10:12:07.954Z,6.87
2016-03-31T10:13:07.988Z,6.96
2016-03-31T10:14:08.022Z,7.16
2016-03-31T10:15:08.056Z,6.38
2016-03-31T10:16:08.090Z,5.79
2016-03-31T10:17:08.125Z,6.67
2016-03-31T10:18:08.205Z,6.47
2016-03-31T10:19:08.208Z,7.35
2016-03-31T10:20:08.258Z,7.84
2016-03-31T10:21:08.275Z,7.65
2016-03-31T10:22:08.311Z,7.85
2016-03-31T10:23:08.344Z,8.73
2016-03-31T10:24:08.378Z,7.16
2016-03-31T10:25:08.411Z,8.14
2016-03-31T10:26:08.446Z,7.74
2016-03-31T10:27:08.480Z,8.04
2016-03-31T10:28:08.544Z,7.35
2016-03-31T10:29:08.563Z,6.56
2016-03-31T10:30:08.596Z,8.42
2016-03-31T10:31:08.615Z,6.76
2016-03-31T10:32:08.649Z,6.85
2016-03-31T10:33:08.840Z,8.23
2016-03-31T10:34:08.732Z,8.81
2016-03-31T10:35:08.782Z,9.31
2016-03-31T10:36:08.800Z,7.64
2016-03-31T10:37:08.850Z,8.33
2016-03-31T10:38:08.884Z,8.33
2016-03-31T10:39:08.918Z,7.75
2016-03-31T10:40:08.937Z,6.96
2016-03-31T10:41:08.986Z,7.45
2016-03-31T10:42:09.004Z,5.49
2016-03-31T10:43:09.037Z,6.28
2016-03-31T10:44:09.073Z,8.63
2016-03-31T10:45:09.137Z,8.33
2016-03-31T10:46:09.171Z,7.65
2016-03-31T10:47:09.205Z,9.22
2016-03-31T10:48:09.286Z,9.71
2016-03-31T10:49:09.117Z,8.73
2016-03-31T10:50:09.291Z,9.42
2016-03-31T10:51:09.325Z,9.12
2016-03-31T10:52:09.359Z,9.03
2016-03-31T10:53:09.394Z,7.66
2016-03-31T10:54:09.442Z,9.62
2016-03-31T10:55:09.461Z,7.85
2016-03-31T10:56:09.494Z,7.85
2016-03-31T10:57:09.529Z,7.65
2016-03-31T10:58:09.578Z,7.55
2016-03-31T10:59:09.441Z,7.64
2016-03-31T11:00:09.631Z,7.64
2016-03-31T11:01:09.680Z,7.15
2016-03-31T11:02:09.730Z,8.42
2016-03-31T11:03:09.749Z,6.37
2016-03-31T11:04:09.766Z,8.33
2016-03-31T11:05:09.801Z,5.78
2016-03-31T11:06:09.835Z,5.49
2016-03-31T11:07:09.868Z,6.46
2016-03-31T11:08:09.902Z,7.44
2016-03-31T11:09:09.936Z,6.95
2016-03-31T11:10:09.970Z,6.46
2016-03-31T11:11:10.020Z,8.13
2016-03-31T11:12:10.054Z,7.64
2016-03-31T11:13:10.072Z,5.98
2016-03-31T11:14:10.137Z,5.49
2016-03-31T11:15:10.156Z,6.57
2016-03-31T11:16:10.190Z,6.48
2016-03-31T11:17:10.223Z,6.57
2016-03-31T11:18:10.320Z,5.3
2016-03-31T11:19:10.323Z,1.07
2016-03-31T11:20:10.309Z,1.17
2016-03-31T11:21:10.344Z,1.07
2016-03-31T11:22:10.393Z,0.78
2016-03-31T11:23:10.427Z,2.06
2016-03-31T11:24:10.461Z,1.37
2016-03-31T11:25:10.495Z,1.96
2016-03-31T11:26:10.529Z,2.84
2016-03-31T11:27:10.563Z,2.94
2016-03-31T11:28:10.597Z,1.86
2016-03-31T11:29:10.630Z,2.74
2016-03-31T11:30:10.664Z,1.76
2016-03-31T11:31:10.713Z,1.37
2016-03-31T11:32:10.732Z,2.83
2016-03-31T11:33:10.829Z,2.83
2016-03-31T11:34:10.799Z,1.76
2016-03-31T11:35:10.850Z,1.86
2016-03-31T11:36:10.852Z,2.34
2016-03-31T11:37:10.886Z,1.76
2016-03-31T11:38:10.920Z,4
2016-03-31T11:39:10.970Z,4.88
2016-03-31T11:40:10.988Z,4.2
2016-03-31T11:41:11.023Z,2.93
2016-03-31T11:42:11.056Z,3.13
2016-03-31T11:43:11.090Z,2.05
2016-03-31T11:44:11.139Z,3.22
2016-03-31T11:45:11.173Z,1.95
2016-03-31T11:46:11.192Z,2.24
2016-03-31T11:47:11.226Z,2.24
2016-03-31T11:48:11.400Z,3.8
2016-03-31T11:49:11.278Z,3.12
2016-03-31T11:50:11.311Z,2.53
2016-03-31T11:51:11.345Z,3.41
2016-03-31T11:52:11.395Z,3.61
2016-03-31T11:53:11.430Z,3.41
2016-03-31T11:54:11.448Z,4.28
2016-03-31T11:55:11.481Z,3.41
2016-03-31T11:56:11.516Z,4.19
2016-03-31T11:57:11.533Z,4.19
2016-03-31T11:58:11.568Z,3.41
2016-03-31T11:59:11.602Z,4.77
2016-03-31T12:00:11.635Z,3.6
2016-03-31T12:01:11.670Z,4.28
2016-03-31T12:02:11.688Z,3.8
2016-03-31T12:03:11.753Z,3.6
2016-03-31T12:04:11.600Z,4.19
2016-03-31T12:05:11.791Z,5.46
2016-03-31T12:06:11.824Z,5.26
2016-03-31T12:07:11.858Z,5.26
2016-03-31T12:08:11.891Z,5.56
2016-03-31T12:09:11.941Z,4.68
2016-03-31T12:10:11.959Z,4.28
2016-03-31T12:11:11.978Z,3.12
2016-03-31T12:12:12.012Z,3.7
2016-03-31T12:13:12.046Z,4.38
2016-03-31T12:14:12.080Z,3.8
2016-03-31T12:15:12.098Z,4.19
2016-03-31T12:16:12.132Z,4.48
2016-03-31T12:17:12.165Z,5.45
2016-03-31T12:18:12.122Z,3.5
2016-03-31T12:19:12.233Z,4.28
2016-03-31T12:20:12.268Z,4.19
2016-03-31T12:21:12.286Z,3.6
2016-03-31T12:22:12.336Z,3.99
2016-03-31T12:23:12.354Z,5.35
2016-03-31T12:24:12.389Z,5.74
2016-03-31T12:25:12.406Z,5.06
2016-03-31T12:26:12.456Z,5.35
2016-03-31T12:27:12.489Z,4.28
2016-03-31T12:28:12.508Z,4.19
2016-03-31T12:29:12.541Z,4.09
2016-03-31T12:30:12.575Z,4.19
2016-03-31T12:31:12.610Z,4.86
2016-03-31T12:32:12.628Z,5.55
2016-03-31T12:33:12.537Z,5.26
2016-03-31T12:34:12.696Z,3.7
2016-03-31T12:35:12.729Z,5.35
2016-03-31T12:36:12.748Z,5.06
2016-03-31T12:37:12.782Z,4.68
2016-03-31T12:38:12.816Z,3.89
2016-03-31T12:39:12.850Z,3.6
2016-03-31T12:40:12.884Z,3.89
2016-03-31T12:41:12.918Z,4.87
2016-03-31T12:42:12.982Z,4.19
2016-03-31T12:43:12.970Z,3.5
2016-03-31T12:44:13.004Z,3.99
2016-03-31T12:45:13.038Z,4.97
2016-03-31T12:46:13.056Z,5.16
2016-03-31T12:47:13.090Z,5.07
2016-03-31T12:48:13.123Z,4
2016-03-31T12:49:13.158Z,3.7
2016-03-31T12:50:13.192Z,4.77
2016-03-31T12:51:13.242Z,4.19
2016-03-31T12:52:13.245Z,3.99
2016-03-31T12:53:13.294Z,3.6
2016-03-31T12:54:13.312Z,4.28
2016-03-31T12:55:13.346Z,3.5
2016-03-31T12:56:13.380Z,3.99
2016-03-31T12:57:13.414Z,4.57
2016-03-31T12:58:13.448Z,5.16
2016-03-31T12:59:13.325Z,5.16
2016-03-31T13:00:13.500Z,3.99
2016-03-31T13:01:13.533Z,4.09
2016-03-31T13:02:13.569Z,5.84
2016-03-31T13:03:13.649Z,5.35
2016-03-31T13:04:13.635Z,4.19